sensor_id;sensor_type;location;lat;lon;timestamp;pressure;altitude;pressure_sealevel;temperature;humidity
72086;BME280;64750;52.134;5.424;2023-05-24T00:01:48;102665.75;;;11.02;67.51
72086;BME280;64750;52.134;5.424;2023-05-24T00:04:15;102660.66;;;10.97;67.57
72086;BME280;64750;52.134;5.424;2023-05-24T00:06:41;102664.31;;;10.92;67.61
72086;BME280;64750;52.134;5.424;2023-05-24T00:09:10;102658.28;;;10.90;67.73
72086;BME280;64750;52.134;5.424;2023-05-24T00:11:40;102661.69;;;10.92;67.79
72086;BME280;64750;52.134;5.424;2023-05-24T00:14:06;102665.16;;;10.94;67.82
72086;BME280;64750;52.134;5.424;2023-05-24T00:16:33;102660.66;;;10.97;67.66
72086;BME280;64750;52.134;5.424;2023-05-24T00:19:00;102654.63;;;10.94;67.82
72086;BME280;64750;52.134;5.424;2023-05-24T00:21:27;102656.34;;;10.95;67.47
72086;BME280;64750;52.134;5.424;2023-05-24T00:23:53;102661.59;;;10.95;67.30
72086;BME280;64750;52.134;5.424;2023-05-24T00:26:20;102659.88;;;10.94;67.54
72086;BME280;64750;52.134;5.424;2023-05-24T00:28:46;102658.28;;;10.90;67.75
72086;BME280;64750;52.134;5.424;2023-05-24T00:31:13;102652.19;;;10.88;67.79
72086;BME280;64750;52.134;5.424;2023-05-24T00:33:42;102651.47;;;10.82;67.98
72086;BME280;64750;52.134;5.424;2023-05-24T00:36:08;102650.63;;;10.82;67.95
72086;BME280;64750;52.134;5.424;2023-05-24T00:38:35;102644.69;;;10.75;68.16
72086;BME280;64750;52.134;5.424;2023-05-24T00:41:01;102649.09;;;10.75;68.00
72086;BME280;64750;52.134;5.424;2023-05-24T00:43:28;102647.38;;;10.74;67.96
72086;BME280;64750;52.134;5.424;2023-05-24T00:46:12;102640.63;;;10.65;68.28
72086;BME280;64750;52.134;5.424;2023-05-24T00:48:41;102639.63;;;10.69;67.96
72086;BME280;64750;52.134;5.424;2023-05-24T00:51:08;102635.88;;;10.76;67.90
72086;BME280;64750;52.134;5.424;2023-05-24T00:53:35;102642.72;;;10.82;67.70
72086;BME280;64750;52.134;5.424;2023-05-24T00:56:03;102631.50;;;10.77;67.86
72086;BME280;64750;52.134;5.424;2023-05-24T00:58:31;102639.63;;;10.69;67.97
72086;BME280;64750;52.134;5.424;2023-05-24T01:00:58;102629.13;;;10.69;68.06
72086;BME280;64750;52.134;5.424;2023-05-24T01:03:26;102631.84;;;10.66;68.24
72086;BME280;64750;52.134;5.424;2023-05-24T01:05:56;102631.75;;;10.69;68.24
72086;BME280;64750;52.134;5.424;2023-05-24T01:11:10;102630.94;;;10.67;68.03
72086;BME280;64750;52.134;5.424;2023-05-24T01:16:50;102636.28;;;10.64;68.09
72086;BME280;64750;52.134;5.424;2023-05-24T01:21:58;102632.50;;;10.73;68.00
72086;BME280;64750;52.134;5.424;2023-05-24T01:27:20;102641.38;;;10.69;67.67
72086;BME280;64750;52.134;5.424;2023-05-24T01:29:48;102640.59;;;10.66;67.96
72086;BME280;64750;52.134;5.424;2023-05-24T01:32:19;102641.56;;;10.62;67.85
72086;BME280;64750;52.134;5.424;2023-05-24T01:34:46;102632.72;;;10.65;67.95
72086;BME280;64750;52.134;5.424;2023-05-24T01:37:12;102637.25;;;10.61;68.45
72086;BME280;64750;52.134;5.424;2023-05-24T01:39:42;102636.28;;;10.64;68.55
72086;BME280;64750;52.134;5.424;2023-05-24T01:42:31;102641.56;;;10.64;68.54
72086;BME280;64750;52.134;5.424;2023-05-24T01:47:41;102635.34;;;10.66;68.51
72086;BME280;64750;52.134;5.424;2023-05-24T01:50:17;102629.38;;;10.60;68.43
72086;BME280;64750;52.134;5.424;2023-05-24T01:52:45;102631.22;;;10.58;68.64
72086;BME280;64750;52.134;5.424;2023-05-24T01:55:16;102637.25;;;10.61;68.32
72086;BME280;64750;52.134;5.424;2023-05-24T01:57:45;102636.38;;;10.61;68.55
72086;BME280;64750;52.134;5.424;2023-05-24T02:00:14;102640.72;;;10.62;68.54
72086;BME280;64750;52.134;5.424;2023-05-24T02:02:42;102634.56;;;10.63;68.70
72086;BME280;64750;52.134;5.424;2023-05-24T02:05:09;102627.44;;;10.66;68.59
72086;BME280;64750;52.134;5.424;2023-05-24T02:07:36;102626.50;;;10.67;68.75
72086;BME280;64750;52.134;5.424;2023-05-24T02:10:03;102631.03;;;10.64;68.95
72086;BME280;64750;52.134;5.424;2023-05-24T02:12:30;102631.94;;;10.63;69.32
72086;BME280;64750;52.134;5.424;2023-05-24T02:14:58;102630.22;;;10.62;69.58
72086;BME280;64750;52.134;5.424;2023-05-24T02:17:25;102626.75;;;10.60;69.58
72086;BME280;64750;52.134;5.424;2023-05-24T02:19:52;102621.50;;;10.60;70.03
72086;BME280;64750;52.134;5.424;2023-05-24T02:22:18;102620.59;;;10.61;70.08
72086;BME280;64750;52.134;5.424;2023-05-24T02:24:47;102617.19;;;10.59;70.10
72086;BME280;64750;52.134;5.424;2023-05-24T02:27:13;102618.84;;;10.61;69.99
72086;BME280;64750;52.134;5.424;2023-05-24T02:29:40;102615.16;;;10.67;69.86
72086;BME280;64750;52.134;5.424;2023-05-24T02:32:07;102620.59;;;10.61;69.88
72086;BME280;64750;52.134;5.424;2023-05-24T02:34:34;102614.56;;;10.57;69.89
72086;BME280;64750;52.134;5.424;2023-05-24T02:37:00;102619.75;;;10.60;70.05
72086;BME280;64750;52.134;5.424;2023-05-24T02:39:27;102624.13;;;10.60;70.15
72086;BME280;64750;52.134;5.424;2023-05-24T02:41:53;102622.47;;;10.57;70.11
72086;BME280;64750;52.134;5.424;2023-05-24T02:44:20;102618.88;;;10.60;70.31
72086;BME280;64750;52.134;5.424;2023-05-24T02:46:46;102625.13;;;10.56;70.43
72086;BME280;64750;52.134;5.424;2023-05-24T02:49:13;102627.78;;;10.56;70.19
72086;BME280;64750;52.134;5.424;2023-05-24T02:51:40;102633.91;;;10.56;70.29
72086;BME280;64750;52.134;5.424;2023-05-24T02:54:06;102632.19;;;10.55;70.20
72086;BME280;64750;52.134;5.424;2023-05-24T02:56:32;102635.78;;;10.53;70.30
72086;BME280;64750;52.134;5.424;2023-05-24T02:58:59;102640.09;;;10.54;70.30
72086;BME280;64750;52.134;5.424;2023-05-24T03:01:26;102639.31;;;10.52;70.30
72086;BME280;64750;52.134;5.424;2023-05-24T03:03:53;102640.25;;;10.49;70.34
72086;BME280;64750;52.134;5.424;2023-05-24T03:06:19;102636.84;;;10.45;70.56
72086;BME280;64750;52.134;5.424;2023-05-24T03:08:45;102635.13;;;10.44;70.50
72086;BME280;64750;52.134;5.424;2023-05-24T03:11:12;102640.53;;;10.40;70.65
72086;BME280;64750;52.134;5.424;2023-05-24T03:13:38;102627.47;;;10.37;70.70
72086;BME280;64750;52.134;5.424;2023-05-24T03:16:08;102630.31;;;10.29;70.85
72086;BME280;64750;52.134;5.424;2023-05-24T03:18:34;102633.81;;;10.29;70.75
72086;BME280;64750;52.134;5.424;2023-05-24T03:21:01;102634.56;;;10.33;70.81
72086;BME280;64750;52.134;5.424;2023-05-24T03:23:27;102618.78;;;10.33;70.85
72086;BME280;64750;52.134;5.424;2023-05-24T03:25:54;102617.88;;;10.34;70.77
72086;BME280;64750;52.134;5.424;2023-05-24T03:28:20;102607.38;;;10.34;70.88
72086;BME280;64750;52.134;5.424;2023-05-24T03:30:47;102616.25;;;10.30;70.75
72086;BME280;64750;52.134;5.424;2023-05-24T03:33:14;102605.03;;;10.25;70.85
72086;BME280;64750;52.134;5.424;2023-05-24T03:35:41;102611.13;;;10.27;70.94
72086;BME280;64750;52.134;5.424;2023-05-24T03:38:07;102605.84;;;10.27;71.19
72086;BME280;64750;52.134;5.424;2023-05-24T03:40:34;102609.28;;;10.29;71.08
72086;BME280;64750;52.134;5.424;2023-05-24T03:43:00;102610.97;;;10.31;71.20
72086;BME280;64750;52.134;5.424;2023-05-24T03:45:29;102611.84;;;10.32;71.26
72086;BME280;64750;52.134;5.424;2023-05-24T03:48:05;102616.25;;;10.30;71.23
72086;BME280;64750;52.134;5.424;2023-05-24T03:50:31;102619.03;;;10.25;71.31
72086;BME280;64750;52.134;5.424;2023-05-24T03:52:58;102619.03;;;10.25;71.38
72086;BME280;64750;52.134;5.424;2023-05-24T03:55:24;102616.44;;;10.24;71.32
72086;BME280;64750;52.134;5.424;2023-05-24T03:57:51;102617.31;;;10.24;71.35
72086;BME280;64750;52.134;5.424;2023-05-24T04:00:18;102620.84;;;10.23;71.20
72086;BME280;64750;52.134;5.424;2023-05-24T04:02:44;102622.66;;;10.21;71.54
72086;BME280;64750;52.134;5.424;2023-05-24T04:05:12;102615.59;;;10.23;71.15
72086;BME280;64750;52.134;5.424;2023-05-24T04:07:39;102611.13;;;10.27;71.08
72086;BME280;64750;52.134;5.424;2023-05-24T04:10:07;102615.38;;;10.31;71.09
72086;BME280;64750;52.134;5.424;2023-05-24T04:12:34;102615.41;;;10.29;71.37
72086;BME280;64750;52.134;5.424;2023-05-24T04:15:00;102619.72;;;10.32;71.26
72086;BME280;64750;52.134;5.424;2023-05-24T04:17:27;102618.78;;;10.34;71.35
72086;BME280;64750;52.134;5.424;2023-05-24T04:19:56;102606.47;;;10.35;71.59
72086;BME280;64750;52.134;5.424;2023-05-24T04:22:22;102615.25;;;10.34;71.69
72086;BME280;64750;52.134;5.424;2023-05-24T04:24:51;102612.59;;;10.37;71.70
72086;BME280;64750;52.134;5.424;2023-05-24T04:27:18;102621.53;;;10.30;71.71
72086;BME280;64750;52.134;5.424;2023-05-24T04:29:44;102611.84;;;10.30;71.93
72086;BME280;64750;52.134;5.424;2023-05-24T04:32:15;102608.31;;;10.31;72.34
72086;BME280;64750;52.134;5.424;2023-05-24T04:34:43;102616.16;;;10.33;72.62
72086;BME280;64750;52.134;5.424;2023-05-24T04:37:11;102617.03;;;10.33;72.92
72086;BME280;64750;52.134;5.424;2023-05-24T04:39:43;102613.50;;;10.34;73.04
72086;BME280;64750;52.134;5.424;2023-05-24T04:42:10;102618.63;;;10.39;73.30
72086;BME280;64750;52.134;5.424;2023-05-24T04:44:39;102617.75;;;10.40;73.38
72086;BME280;64750;52.134;5.424;2023-05-24T04:47:06;102617.75;;;10.40;73.70
72086;BME280;64750;52.134;5.424;2023-05-24T04:49:33;102620.31;;;10.42;73.82
72086;BME280;64750;52.134;5.424;2023-05-24T04:51:59;102616.72;;;10.44;73.75
72086;BME280;64750;52.134;5.424;2023-05-24T04:54:25;102617.75;;;10.40;74.55
72086;BME280;64750;52.134;5.424;2023-05-24T04:56:52;102624.78;;;10.38;74.88
72086;BME280;64750;52.134;5.424;2023-05-24T04:59:18;102630.94;;;10.39;75.05
72086;BME280;64750;52.134;5.424;2023-05-24T05:01:45;102623.81;;;10.42;75.49
72086;BME280;64750;52.134;5.424;2023-05-24T05:04:12;102617.63;;;10.43;75.40
72086;BME280;64750;52.134;5.424;2023-05-24T05:06:38;102625.50;;;10.43;75.50
72086;BME280;64750;52.134;5.424;2023-05-24T05:09:06;102622.81;;;10.46;75.78
72086;BME280;64750;52.134;5.424;2023-05-24T05:11:38;102627.97;;;10.49;75.53
72086;BME280;64750;52.134;5.424;2023-05-24T05:14:06;102622.69;;;10.49;75.70
72086;BME280;64750;52.134;5.424;2023-05-24T05:16:35;102629.56;;;10.54;75.72
72086;BME280;64750;52.134;5.424;2023-05-24T05:19:02;102625.13;;;10.56;75.86
72086;BME280;64750;52.134;5.424;2023-05-24T05:21:33;102633.13;;;10.53;75.85
72086;BME280;64750;52.134;5.424;2023-05-24T05:24:00;102626.22;;;10.50;76.01
72086;BME280;64750;52.134;5.424;2023-05-24T05:26:27;102628.84;;;10.50;76.10
72086;BME280;64750;52.134;5.424;2023-05-24T05:28:53;102626.16;;;10.52;76.35
72086;BME280;64750;52.134;5.424;2023-05-24T05:31:20;102634.94;;;10.50;76.37
72086;BME280;64750;52.134;5.424;2023-05-24T05:33:47;102633.22;;;10.49;76.55
72086;BME280;64750;52.134;5.424;2023-05-24T05:36:14;102641.81;;;10.55;76.58
72086;BME280;64750;52.134;5.424;2023-05-24T05:38:40;102638.28;;;10.56;75.98
72086;BME280;64750;52.134;5.424;2023-05-24T05:41:07;102640.78;;;10.60;76.06
72086;BME280;64750;52.134;5.424;2023-05-24T05:43:33;102643.34;;;10.62;76.21
72086;BME280;64750;52.134;5.424;2023-05-24T05:46:00;102638.94;;;10.62;76.18
72086;BME280;64750;52.134;5.424;2023-05-24T05:48:26;102634.28;;;10.72;75.88
72086;BME280;64750;52.134;5.424;2023-05-24T05:50:53;102643.84;;;10.75;75.91
72086;BME280;64750;52.134;5.424;2023-05-24T05:53:19;102644.59;;;10.78;75.78
72086;BME280;64750;52.134;5.424;2023-05-24T05:55:46;102634.06;;;10.78;75.64
72086;BME280;64750;52.134;5.424;2023-05-24T05:58:12;102640.94;;;10.82;76.28
72086;BME280;64750;52.134;5.424;2023-05-24T06:00:42;102635.69;;;10.82;75.53
72086;BME280;64750;52.134;5.424;2023-05-24T06:03:08;102647.03;;;10.85;75.45
72086;BME280;64750;52.134;5.424;2023-05-24T06:05:35;102636.34;;;10.89;75.58
72086;BME280;64750;52.134;5.424;2023-05-24T06:08:01;102633.47;;;10.97;75.41
72086;BME280;64750;52.134;5.424;2023-05-24T06:10:28;102638.59;;;11.02;75.18
72086;BME280;64750;52.134;5.424;2023-05-24T06:12:54;102639.50;;;11.00;75.17
72086;BME280;64750;52.134;5.424;2023-05-24T06:15:21;102634.16;;;11.02;75.32
72086;BME280;64750;52.134;5.424;2023-05-24T06:17:48;102638.47;;;11.05;75.03
72086;BME280;64750;52.134;5.424;2023-05-24T06:20:17;102635.94;;;11.02;75.07
72086;BME280;64750;52.134;5.424;2023-05-24T06:22:43;102646.22;;;11.09;75.28
72086;BME280;64750;52.134;5.424;2023-05-24T06:25:10;102646.81;;;11.18;75.34
72086;BME280;64750;52.134;5.424;2023-05-24T06:27:40;102641.25;;;11.27;74.85
72086;BME280;64750;52.134;5.424;2023-05-24T06:30:07;102648.13;;;11.31;74.56
72086;BME280;64750;52.134;5.424;2023-05-24T06:32:34;102648.84;;;11.36;74.27
72086;BME280;64750;52.134;5.424;2023-05-24T06:35:00;102645.28;;;11.37;74.13
72086;BME280;64750;52.134;5.424;2023-05-24T06:37:27;102654.78;;;11.41;73.81
72086;BME280;64750;52.134;5.424;2023-05-24T06:39:56;102652.22;;;11.40;73.88
72086;BME280;64750;52.134;5.424;2023-05-24T06:42:22;102646.75;;;11.46;73.67
72086;BME280;64750;52.134;5.424;2023-05-24T06:44:49;102648.34;;;11.50;73.48
72086;BME280;64750;52.134;5.424;2023-05-24T06:47:15;102646.50;;;11.52;73.25
72086;BME280;64750;52.134;5.424;2023-05-24T06:49:42;102656.06;;;11.55;72.76
72086;BME280;64750;52.134;5.424;2023-05-24T06:52:08;102649.91;;;11.56;72.61
72086;BME280;64750;52.134;5.424;2023-05-24T06:54:35;102650.81;;;11.55;72.82
72086;BME280;64750;52.134;5.424;2023-05-24T06:57:01;102654.31;;;11.55;72.85
72086;BME280;64750;52.134;5.424;2023-05-24T06:59:29;102650.66;;;11.59;72.98
72086;BME280;64750;52.134;5.424;2023-05-24T07:01:55;102666.31;;;11.64;73.19
72086;BME280;64750;52.134;5.424;2023-05-24T07:04:25;102655.66;;;11.67;72.64
72086;BME280;64750;52.134;5.424;2023-05-24T07:06:52;102660.78;;;11.72;71.97
72086;BME280;64750;52.134;5.424;2023-05-24T07:09:18;102661.56;;;11.74;71.81
72086;BME280;64750;52.134;5.424;2023-05-24T07:11:45;102662.53;;;11.71;71.49
72086;BME280;64750;52.134;5.424;2023-05-24T07:14:11;102660.78;;;11.70;71.86
72086;BME280;64750;52.134;5.424;2023-05-24T07:16:38;102668.59;;;11.73;71.51
72086;BME280;64750;52.134;5.424;2023-05-24T07:19:07;102663.91;;;11.81;71.45
72086;BME280;64750;52.134;5.424;2023-05-24T07:21:33;102666.38;;;11.86;71.35
72086;BME280;64750;52.134;5.424;2023-05-24T07:24:01;102670.69;;;11.89;71.71
72086;BME280;64750;52.134;5.424;2023-05-24T07:26:29;102659.00;;;11.97;71.53
72086;BME280;64750;52.134;5.424;2023-05-24T07:28:55;102656.16;;;12.02;71.28
72086;BME280;64750;52.134;5.424;2023-05-24T07:31:22;102653.66;;;11.99;70.87
72086;BME280;64750;52.134;5.424;2023-05-24T07:33:48;102657.09;;;12.01;70.93
72086;BME280;64750;52.134;5.424;2023-05-24T07:36:15;102659.00;;;11.97;70.60
72086;BME280;64750;52.134;5.424;2023-05-24T07:38:41;102661.56;;;11.99;71.05
72086;BME280;64750;52.134;5.424;2023-05-24T07:41:08;102666.69;;;12.02;70.87
72086;BME280;64750;52.134;5.424;2023-05-24T07:43:35;102654.34;;;12.04;70.45
72086;BME280;64750;52.134;5.424;2023-05-24T07:46:03;102663.75;;;12.11;70.76
72086;BME280;64750;52.134;5.424;2023-05-24T07:48:29;102670.72;;;12.12;70.31
72086;BME280;64750;52.134;5.424;2023-05-24T07:50:56;102666.19;;;12.16;70.29
72086;BME280;64750;52.134;5.424;2023-05-24T07:53:22;102666.81;;;12.23;70.01
72086;BME280;64750;52.134;5.424;2023-05-24T07:55:48;102655.03;;;12.33;69.79
72086;BME280;64750;52.134;5.424;2023-05-24T07:58:16;102656.13;;;12.50;69.69
72086;BME280;64750;52.134;5.424;2023-05-24T08:00:42;102655.66;;;12.62;69.08
72086;BME280;64750;52.134;5.424;2023-05-24T08:03:09;102658.22;;;12.63;68.49
72086;BME280;64750;52.134;5.424;2023-05-24T08:05:38;102659.41;;;12.56;68.59
72086;BME280;64750;52.134;5.424;2023-05-24T08:08:05;102658.91;;;12.46;68.13
72086;BME280;64750;52.134;5.424;2023-05-24T08:10:32;102658.22;;;12.41;68.23
72086;BME280;64750;52.134;5.424;2023-05-24T08:12:59;102658.97;;;12.45;68.86
72086;BME280;64750;52.134;5.424;2023-05-24T08:15:25;102656.03;;;12.53;68.76
72086;BME280;64750;52.134;5.424;2023-05-24T08:17:52;102654.16;;;12.55;69.29
72086;BME280;64750;52.134;5.424;2023-05-24T08:20:18;102657.47;;;12.60;68.86
72086;BME280;64750;52.134;5.424;2023-05-24T08:22:46;102658.28;;;12.62;67.78
72086;BME280;64750;52.134;5.424;2023-05-24T08:25:13;102654.66;;;12.64;67.12
72086;BME280;64750;52.134;5.424;2023-05-24T08:27:40;102653.56;;;12.70;67.50
72086;BME280;64750;52.134;5.424;2023-05-24T08:30:07;102650.50;;;12.81;67.32
72086;BME280;64750;52.134;5.424;2023-05-24T08:32:34;102655.38;;;12.90;66.83
72086;BME280;64750;52.134;5.424;2023-05-24T08:35:01;102647.41;;;12.92;66.57
72086;BME280;64750;52.134;5.424;2023-05-24T08:37:44;102638.06;;;13.05;66.36
72086;BME280;64750;52.134;5.424;2023-05-24T08:40:11;102645.91;;;13.07;65.53
72086;BME280;64750;52.134;5.424;2023-05-24T08:42:37;102648.88;;;12.99;64.89
72086;BME280;64750;52.134;5.424;2023-05-24T08:45:10;102646.16;;;13.01;65.71
72086;BME280;64750;52.134;5.424;2023-05-24T08:47:37;102641.38;;;13.10;65.49
72086;BME280;64750;52.134;5.424;2023-05-24T08:50:06;102641.84;;;13.20;65.40
72086;BME280;64750;52.134;5.424;2023-05-24T08:52:32;102639.66;;;13.30;65.14
72086;BME280;64750;52.134;5.424;2023-05-24T08:55:01;102641.47;;;13.29;63.75
72086;BME280;64750;52.134;5.424;2023-05-24T08:57:30;102633.66;;;13.26;63.11
72086;BME280;64750;52.134;5.424;2023-05-24T08:59:57;102636.19;;;13.29;64.25
72086;BME280;64750;52.134;5.424;2023-05-24T09:02:25;102641.47;;;13.29;64.67
72086;BME280;64750;52.134;5.424;2023-05-24T09:04:52;102649.44;;;13.28;64.44
72086;BME280;64750;52.134;5.424;2023-05-24T09:07:20;102638.28;;;13.21;61.72
72086;BME280;64750;52.134;5.424;2023-05-24T09:10:03;102647.25;;;13.17;61.68
72086;BME280;64750;52.134;5.424;2023-05-24T09:12:31;102647.47;;;13.33;61.08
72086;BME280;64750;52.134;5.424;2023-05-24T09:15:06;102642.13;;;13.55;61.41
72086;BME280;64750;52.134;5.424;2023-05-24T09:17:34;102636.63;;;13.81;61.60
72086;BME280;64750;52.134;5.424;2023-05-24T09:20:03;102639.34;;;13.98;61.70
72086;BME280;64750;52.134;5.424;2023-05-24T09:22:34;102643.06;;;13.94;60.98
72086;BME280;64750;52.134;5.424;2023-05-24T09:25:06;102656.16;;;13.76;61.24
72086;BME280;64750;52.134;5.424;2023-05-24T09:27:34;102658.31;;;13.68;62.15
72086;BME280;64750;52.134;5.424;2023-05-24T09:30:02;102657.38;;;13.69;60.69
72086;BME280;64750;52.134;5.424;2023-05-24T09:32:30;102642.03;;;13.77;60.04
72086;BME280;64750;52.134;5.424;2023-05-24T09:34:58;102634.47;;;13.89;60.07
72086;BME280;64750;52.134;5.424;2023-05-24T09:37:25;102643.22;;;13.91;59.23
72086;BME280;64750;52.134;5.424;2023-05-24T09:39:58;102654.97;;;13.84;60.25
72086;BME280;64750;52.134;5.424;2023-05-24T09:42:26;102651.19;;;13.70;61.36
72086;BME280;64750;52.134;5.424;2023-05-24T09:45:01;102645.25;;;13.65;61.78
72086;BME280;64750;52.134;5.424;2023-05-24T09:47:31;102648.16;;;13.59;61.93
72086;BME280;64750;52.134;5.424;2023-05-24T09:49:59;102647.41;;;13.55;62.57
72086;BME280;64750;52.134;5.424;2023-05-24T09:52:26;102644.94;;;13.71;61.10
72086;BME280;64750;52.134;5.424;2023-05-24T09:54:53;102649.47;;;13.69;61.35
72086;BME280;64750;52.134;5.424;2023-05-24T09:57:20;102655.47;;;13.73;61.56
72086;BME280;64750;52.134;5.424;2023-05-24T09:59:50;102641.09;;;13.78;61.27
72086;BME280;64750;52.134;5.424;2023-05-24T10:02:20;102651.34;;;13.86;61.31
72086;BME280;64750;52.134;5.424;2023-05-24T10:04:49;102642.13;;;13.95;60.76
72086;BME280;64750;52.134;5.424;2023-05-24T10:07:23;102636.84;;;13.95;59.55
72086;BME280;64750;52.134;5.424;2023-05-24T10:09:49;102658.06;;;13.93;60.07
72086;BME280;64750;52.134;5.424;2023-05-24T10:12:17;102646.63;;;13.93;59.29
72086;BME280;64750;52.134;5.424;2023-05-24T10:14:44;102658.13;;;13.92;60.01
72086;BME280;64750;52.134;5.424;2023-05-24T10:17:10;102653.06;;;13.87;60.67
72086;BME280;64750;52.134;5.424;2023-05-24T10:19:37;102647.84;;;13.86;61.36
72086;BME280;64750;52.134;5.424;2023-05-24T10:22:06;102645.84;;;13.91;60.64
72086;BME280;64750;52.134;5.424;2023-05-24T10:24:45;102656.34;;;13.92;59.90
72086;BME280;64750;52.134;5.424;2023-05-24T10:27:14;102648.88;;;13.82;59.04
72086;BME280;64750;52.134;5.424;2023-05-24T10:32:17;102654.63;;;13.91;59.53
72086;BME280;64750;52.134;5.424;2023-05-24T10:34:45;102650.06;;;13.95;59.45
72086;BME280;64750;52.134;5.424;2023-05-24T10:37:12;102647.34;;;13.97;58.70
72086;BME280;64750;52.134;5.424;2023-05-24T10:39:40;102642.97;;;13.95;58.27
72086;BME280;64750;52.134;5.424;2023-05-24T10:42:07;102650.91;;;13.95;58.03
72086;BME280;64750;52.134;5.424;2023-05-24T10:44:35;102656.34;;;13.92;58.13
72086;BME280;64750;52.134;5.424;2023-05-24T10:47:12;102647.78;;;13.87;59.24
72086;BME280;64750;52.134;5.424;2023-05-24T10:50:00;102648.63;;;13.88;58.90
72086;BME280;64750;52.134;5.424;2023-05-24T10:52:41;102645.91;;;13.89;58.25
72086;BME280;64750;52.134;5.424;2023-05-24T10:55:09;102643.06;;;13.94;58.56
72086;BME280;64750;52.134;5.424;2023-05-24T10:57:37;102631.56;;;13.95;58.50
72086;BME280;64750;52.134;5.424;2023-05-24T11:03:11;102639.06;;;14.04;57.23
72086;BME280;64750;52.134;5.424;2023-05-24T11:08:25;102643.91;;;14.14;57.34
72086;BME280;64750;52.134;5.424;2023-05-24T11:11:09;102641.22;;;14.15;56.90
72086;BME280;64750;52.134;5.424;2023-05-24T11:13:54;102634.06;;;14.17;57.08
72086;BME280;64750;52.134;5.424;2023-05-24T11:16:35;102634.50;;;14.27;57.09
72086;BME280;64750;52.134;5.424;2023-05-24T11:19:19;102632.22;;;14.38;57.38
72086;BME280;64750;52.134;5.424;2023-05-24T11:21:47;102634.78;;;14.40;57.08
72086;BME280;64750;52.134;5.424;2023-05-24T11:24:18;102632.03;;;14.41;57.52
72086;BME280;64750;52.134;5.424;2023-05-24T11:26:45;102633.69;;;14.44;57.04
72086;BME280;64750;52.134;5.424;2023-05-24T11:29:12;102636.16;;;14.47;57.18
72086;BME280;64750;52.134;5.424;2023-05-24T11:31:47;102642.34;;;14.48;57.12
72086;BME280;64750;52.134;5.424;2023-05-24T11:34:14;102635.03;;;14.53;57.54
72086;BME280;64750;52.134;5.424;2023-05-24T11:36:41;102628.75;;;14.55;57.02
72086;BME280;64750;52.134;5.424;2023-05-24T11:39:08;102639.25;;;14.57;57.63
72086;BME280;64750;52.134;5.424;2023-05-24T11:41:37;102632.88;;;14.61;57.67
72086;BME280;64750;52.134;5.424;2023-05-24T11:44:06;102641.59;;;14.63;57.78
72086;BME280;64750;52.134;5.424;2023-05-24T11:46:32;102632.75;;;14.64;57.63
72086;BME280;64750;52.134;5.424;2023-05-24T11:48:59;102634.16;;;14.71;58.11
72086;BME280;64750;52.134;5.424;2023-05-24T11:51:31;102628.72;;;14.74;57.73
72086;BME280;64750;52.134;5.424;2023-05-24T11:53:58;102640.09;;;14.76;58.05
72086;BME280;64750;52.134;5.424;2023-05-24T11:56:27;102635.41;;;14.82;58.26
72086;BME280;64750;52.134;5.424;2023-05-24T11:59:15;102636.03;;;14.87;58.32
72086;BME280;64750;52.134;5.424;2023-05-24T12:01:43;102630.00;;;14.85;58.69
72086;BME280;64750;52.134;5.424;2023-05-24T12:04:10;102627.25;;;14.86;57.10
72086;BME280;64750;52.134;5.424;2023-05-24T12:06:41;102630.00;;;14.85;57.82
72086;BME280;64750;52.134;5.424;2023-05-24T12:09:10;102625.94;;;14.95;57.97
72086;BME280;64750;52.134;5.424;2023-05-24T12:11:47;102639.44;;;15.08;57.42
72086;BME280;64750;52.134;5.424;2023-05-24T12:14:15;102627.59;;;15.15;57.06
72086;BME280;64750;52.134;5.424;2023-05-24T12:16:42;102633.44;;;15.22;57.43
72086;BME280;64750;52.134;5.424;2023-05-24T12:19:19;102619.16;;;15.24;57.46
72086;BME280;64750;52.134;5.424;2023-05-24T12:22:00;102620.31;;;15.19;57.60
72086;BME280;64750;52.134;5.424;2023-05-24T12:24:27;102629.28;;;15.16;57.27
72086;BME280;64750;52.134;5.424;2023-05-24T12:27:01;102630.56;;;15.09;57.41
72086;BME280;64750;52.134;5.424;2023-05-24T12:29:33;102627.13;;;15.07;57.81
72086;BME280;64750;52.134;5.424;2023-05-24T12:32:01;102627.50;;;14.99;57.36
72086;BME280;64750;52.134;5.424;2023-05-24T12:34:27;102630.44;;;14.93;57.07
72086;BME280;64750;52.134;5.424;2023-05-24T12:36:54;102621.75;;;14.91;57.90
72086;BME280;64750;52.134;5.424;2023-05-24T12:39:26;102626.56;;;15.00;57.80
72086;BME280;64750;52.134;5.424;2023-05-24T12:41:58;102622.53;;;15.11;57.29
72086;BME280;64750;52.134;5.424;2023-05-24T12:46:57;102621.13;;;15.21;56.73
72086;BME280;64750;52.134;5.424;2023-05-24T12:49:24;102624.69;;;15.20;57.03
72086;BME280;64750;52.134;5.424;2023-05-24T12:51:53;102624.22;;;15.29;56.80
72086;BME280;64750;52.134;5.424;2023-05-24T12:54:25;102620.94;;;15.24;57.44
72086;BME280;64750;52.134;5.424;2023-05-24T12:56:52;102626.56;;;15.35;56.59
72086;BME280;64750;52.134;5.424;2023-05-24T12:59:22;102618.47;;;15.38;56.05
72086;BME280;64750;52.134;5.424;2023-05-24T13:01:49;102627.16;;;15.40;55.79
72086;BME280;64750;52.134;5.424;2023-05-24T13:04:17;102629.06;;;15.38;55.37
72086;BME280;64750;52.134;5.424;2023-05-24T13:06:46;102630.59;;;15.25;56.13
72086;BME280;64750;52.134;5.424;2023-05-24T13:09:13;102635.59;;;15.14;56.64
72086;BME280;64750;52.134;5.424;2023-05-24T13:11:41;102632.50;;;15.05;56.66
72086;BME280;64750;52.134;5.424;2023-05-24T13:14:07;102627.72;;;15.12;56.30
72086;BME280;64750;52.134;5.424;2023-05-24T13:16:34;102630.00;;;15.20;56.97
72086;BME280;64750;52.134;5.424;2023-05-24T13:19:01;102630.38;;;15.30;57.31
72086;BME280;64750;52.134;5.424;2023-05-24T13:21:27;102634.50;;;15.35;56.67